createdAt,value
2023-04-15T00:04:01.935Z,8.47
2023-04-15T00:08:08.146Z,9.50
2023-04-15T00:12:13.718Z,9.13
2023-04-15T00:16:19.296Z,10.50
2023-04-15T00:20:24.946Z,11.13
2023-04-15T00:24:31.593Z,10.67
2023-04-15T00:28:37.104Z,10.57
2023-04-15T00:32:42.728Z,12.67
2023-04-15T00:36:48.357Z,11.73
2023-04-15T00:40:56.670Z,17.03
2023-04-15T00:45:02.465Z,13.57
2023-04-15T00:49:08.237Z,18.67
2023-04-15T00:53:13.788Z,16.63
2023-04-15T00:57:22.393Z,17.57
2023-04-15T01:01:29.251Z,19.43
2023-04-15T01:05:35.521Z,19.27
2023-04-15T01:09:42.230Z,21.90
2023-04-15T01:13:48.503Z,26.83
2023-04-15T01:17:54.338Z,27.33
2023-04-15T01:21:59.992Z,29.20
2023-04-15T01:26:07.952Z,33.27
2023-04-15T01:30:13.587Z,41.20
2023-04-15T01:34:19.856Z,51.87
2023-04-15T01:38:27.418Z,44.70
2023-04-15T01:42:36.530Z,40.93
2023-04-15T01:46:42.033Z,41.83
2023-04-15T01:50:48.126Z,37.53
2023-04-15T01:54:54.681Z,71.30
2023-04-15T01:59:00.390Z,83.30
2023-04-15T02:03:06.700Z,45.70
2023-04-15T02:07:12.222Z,45.10
2023-04-15T02:11:18.276Z,51.73
2023-04-15T02:15:23.774Z,50.43
2023-04-15T02:19:29.392Z,59.50
2023-04-15T02:23:34.898Z,45.13
2023-04-15T02:27:40.452Z,78.23
2023-04-15T02:31:46.199Z,52.17
2023-04-15T02:35:51.828Z,49.43
2023-04-15T02:39:57.311Z,53.60
2023-04-15T02:44:03.057Z,56.83
2023-04-15T02:48:08.520Z,71.17
2023-04-15T02:52:14.086Z,69.47
2023-04-15T02:56:19.889Z,68.33
2023-04-15T03:00:26.132Z,63.57
2023-04-15T03:04:32.682Z,90.67
2023-04-15T03:08:38.223Z,75.80
2023-04-15T03:12:43.937Z,58.40
2023-04-15T03:16:50.655Z,60.63
2023-04-15T03:20:56.214Z,62.07
2023-04-15T03:25:01.885Z,62.90
2023-04-15T03:29:07.594Z,62.27
2023-04-15T03:33:13.291Z,61.13
2023-04-15T03:37:18.873Z,47.50
2023-04-15T03:41:24.775Z,49.17
2023-04-15T03:45:30.404Z,56.90
2023-04-15T03:49:37.059Z,47.33
2023-04-15T03:53:44.851Z,58.27
2023-04-15T03:57:50.478Z,55.57
2023-04-15T04:01:56.388Z,45.27
2023-04-15T04:06:02.183Z,45.00
2023-04-15T04:10:08.564Z,46.77
2023-04-15T04:14:14.121Z,54.77
2023-04-15T04:18:19.642Z,47.70
2023-04-15T04:22:26.222Z,51.10
2023-04-15T04:26:31.652Z,46.57
2023-04-15T04:30:37.273Z,59.10
2023-04-15T04:34:42.785Z,57.77
2023-04-15T04:38:48.348Z,57.30
2023-04-15T04:42:54.358Z,52.00
2023-04-15T04:47:00.036Z,56.53
2023-04-15T04:51:05.606Z,51.27
2023-04-15T04:55:11.673Z,54.33
2023-04-15T04:59:18.954Z,49.77
2023-04-15T05:03:25.210Z,52.17
2023-04-15T05:07:31.229Z,48.77
2023-04-15T05:11:36.725Z,50.50
2023-04-15T05:15:43.350Z,49.57
2023-04-15T05:19:49.055Z,54.40
2023-04-15T05:23:54.584Z,53.27
2023-04-15T05:28:00.518Z,48.97
2023-04-15T05:32:06.644Z,52.43
2023-04-15T05:36:12.222Z,49.67
2023-04-15T05:40:18.058Z,42.50
2023-04-15T05:44:23.696Z,50.00
2023-04-15T05:48:29.163Z,50.43
2023-04-15T05:52:34.662Z,55.23
2023-04-15T05:56:40.226Z,55.67
2023-04-15T06:00:46.331Z,47.00
2023-04-15T06:04:52.349Z,48.57
2023-04-15T06:08:59.126Z,50.97
2023-04-15T06:13:04.907Z,51.30
2023-04-15T06:17:10.605Z,53.53
2023-04-15T06:21:16.405Z,46.93
2023-04-15T06:25:22.144Z,47.60
2023-04-15T06:29:27.605Z,51.47
2023-04-15T06:33:33.218Z,39.20
2023-04-15T06:37:38.657Z,40.13
2023-04-15T06:41:44.332Z,49.50
2023-04-15T06:45:49.867Z,44.57
2023-04-15T06:49:55.518Z,40.60
2023-04-15T06:54:01.168Z,46.37
2023-04-15T06:58:06.710Z,52.70
2023-04-15T07:02:14.057Z,47.00
2023-04-15T07:06:21.976Z,46.80
2023-04-15T07:10:27.825Z,36.70
2023-04-15T07:14:33.761Z,40.00
2023-04-15T07:18:40.424Z,43.33
2023-04-15T07:22:45.927Z,46.00
2023-04-15T07:26:51.681Z,43.80
2023-04-15T07:30:57.432Z,38.37
2023-04-15T07:35:03.796Z,46.40
2023-04-15T07:39:10.200Z,38.47
2023-04-15T07:43:15.820Z,36.83
2023-04-15T07:47:22.727Z,39.27
2023-04-15T07:51:29.356Z,43.17
2023-04-15T07:55:35.027Z,37.87
2023-04-15T07:59:40.552Z,38.17
2023-04-15T08:03:46.649Z,44.10
2023-04-15T08:07:52.294Z,41.53
2023-04-15T08:11:58.102Z,45.73
2023-04-15T08:16:33.374Z,36.33
2023-04-15T08:20:39.015Z,35.80
2023-04-15T08:24:45.996Z,46.60
2023-04-15T08:28:51.614Z,37.17
2023-04-15T08:32:57.219Z,36.10
2023-04-15T08:37:02.749Z,39.43
2023-04-15T08:41:26.205Z,40.97
2023-04-15T08:45:32.220Z,32.27
2023-04-15T08:49:41.853Z,31.40
2023-04-15T08:53:47.891Z,30.43
2023-04-15T08:57:53.444Z,30.70
2023-04-15T09:01:59.332Z,27.47
2023-04-15T09:06:06.997Z,28.30
2023-04-15T09:10:13.235Z,28.87
2023-04-15T09:14:18.758Z,29.80
2023-04-15T09:18:32.610Z,24.77
2023-04-15T09:22:39.048Z,26.00
2023-04-15T09:26:44.632Z,25.00
2023-04-15T09:30:56.653Z,24.13
2023-04-15T09:35:13.112Z,22.00
2023-04-15T09:39:19.845Z,22.90
2023-04-15T09:43:40.042Z,25.93
2023-04-15T09:47:45.808Z,24.40
2023-04-15T09:52:01.666Z,18.73
2023-04-15T09:56:10.992Z,18.53
2023-04-15T10:00:16.858Z,19.67
2023-04-15T10:04:23.137Z,20.17
2023-04-15T10:08:32.916Z,19.70
2023-04-15T10:12:41.599Z,20.73
2023-04-15T10:16:49.187Z,24.30
2023-04-15T10:20:55.608Z,20.63
2023-04-15T10:25:04.211Z,22.37
2023-04-15T10:29:10.895Z,26.47
2023-04-15T10:33:21.813Z,27.20
2023-04-15T10:37:37.496Z,24.90
2023-04-15T10:41:43.236Z,21.70
2023-04-15T10:45:48.816Z,24.73
2023-04-15T10:50:01.748Z,21.07
2023-04-15T10:54:18.657Z,30.87
2023-04-15T10:58:26.051Z,21.73
2023-04-15T11:02:42.071Z,31.40
2023-04-15T11:07:07.081Z,28.20
2023-04-15T11:11:14.760Z,29.83
2023-04-15T11:15:47.237Z,37.17
2023-04-15T11:19:52.834Z,30.27
2023-04-15T11:23:59.362Z,28.90
2023-04-15T11:28:06.138Z,29.03
2023-04-15T11:32:12.094Z,34.53
2023-04-15T11:36:18.107Z,28.33
2023-04-15T11:40:27.286Z,32.93
2023-04-15T11:44:32.784Z,31.00
2023-04-15T11:48:44.966Z,28.43
2023-04-15T11:52:58.700Z,31.30
2023-04-15T11:57:04.265Z,30.13
2023-04-15T12:01:09.753Z,26.70
2023-04-15T12:05:16.141Z,26.10
2023-04-15T12:09:21.927Z,31.63
2023-04-15T12:13:28.355Z,28.37
2023-04-15T12:17:51.694Z,25.83
2023-04-15T12:22:04.450Z,28.40
2023-04-15T12:26:11.601Z,28.13
2023-04-15T12:30:17.073Z,28.87
2023-04-15T12:34:34.755Z,33.43
2023-04-15T12:38:40.249Z,28.73
2023-04-15T12:42:45.889Z,29.13
2023-04-15T12:46:53.596Z,27.10
2023-04-15T12:50:59.128Z,30.63
2023-04-15T12:55:05.136Z,28.53
2023-04-15T12:59:11.007Z,25.53
2023-04-15T13:03:16.911Z,24.73
2023-04-15T13:07:22.533Z,26.23
2023-04-15T13:11:30.996Z,27.10
2023-04-15T13:15:37.091Z,25.40
2023-04-15T13:19:42.685Z,26.20
2023-04-15T13:27:55.246Z,24.00
2023-04-15T13:32:01.576Z,27.27
2023-04-15T13:36:07.760Z,25.60
2023-04-15T13:40:13.455Z,27.40
2023-04-15T13:44:20.893Z,24.80
2023-04-15T13:52:32.919Z,28.87
2023-04-15T13:56:38.552Z,25.77
2023-04-15T14:00:44.151Z,19.90
2023-04-15T14:04:49.748Z,25.83
2023-04-15T14:08:55.614Z,20.43
2023-04-15T14:13:01.282Z,23.80
2023-04-15T14:17:07.319Z,20.20
2023-04-15T14:21:12.977Z,19.17
2023-04-15T14:25:30.461Z,24.67
2023-04-15T16:24:47.010Z,19.10
2023-04-15T16:28:52.500Z,19.33
2023-04-15T16:33:00.321Z,20.80
2023-04-15T16:37:05.968Z,20.47
2023-04-15T16:41:11.420Z,20.13
2023-04-15T16:45:19.061Z,21.10
2023-04-15T16:49:24.505Z,21.90
2023-04-15T16:53:32.151Z,21.10
2023-04-15T16:58:01.595Z,18.73
2023-04-15T17:02:03.109Z,22.97
2023-04-15T17:06:08.687Z,23.20
2023-04-15T17:10:14.311Z,24.30
2023-04-15T17:14:19.886Z,19.73
2023-04-15T17:18:25.517Z,18.40
2023-04-15T17:22:31.257Z,20.13
2023-04-15T17:26:36.923Z,24.60
2023-04-15T17:30:42.364Z,15.40
2023-04-15T17:34:51.402Z,18.17
2023-04-15T17:38:57.111Z,14.40
2023-04-15T17:43:02.582Z,22.13
2023-04-15T17:47:08.175Z,17.73
2023-04-15T17:51:13.704Z,18.33
2023-04-15T17:55:19.317Z,20.20
2023-04-15T17:59:24.923Z,28.83
2023-04-15T18:03:30.716Z,20.53
2023-04-15T18:07:36.597Z,17.83
2023-04-15T18:11:43.920Z,15.13
2023-04-15T18:15:51.270Z,17.87
2023-04-15T18:19:57.019Z,24.47
2023-04-15T18:24:02.937Z,22.80
2023-04-15T18:28:10.049Z,21.30
2023-04-15T18:32:15.559Z,21.10
2023-04-15T18:36:21.213Z,13.67
2023-04-15T18:40:26.918Z,18.43
2023-04-15T18:44:33.443Z,20.90
2023-04-15T18:48:38.942Z,18.37
2023-04-15T18:52:45.729Z,30.53
2023-04-15T18:56:51.827Z,20.37
2023-04-15T19:00:57.555Z,21.13
2023-04-15T19:05:05.512Z,23.13
2023-04-15T19:09:11.045Z,24.47
2023-04-15T19:13:18.857Z,18.20
2023-04-15T19:17:24.539Z,16.40
2023-04-15T19:21:30.778Z,20.50
2023-04-15T19:25:37.108Z,22.17
2023-04-15T19:29:42.863Z,25.23
2023-04-15T19:33:48.397Z,21.70
2023-04-15T19:37:53.870Z,16.53
2023-04-15T19:41:59.433Z,20.93
2023-04-15T19:46:04.942Z,18.53
2023-04-15T19:50:11.890Z,17.60
2023-04-15T19:54:17.546Z,22.07
2023-04-15T19:58:23.247Z,20.93
2023-04-15T20:02:30.018Z,17.23
2023-04-15T20:06:35.853Z,22.80
2023-04-15T20:10:41.440Z,20.33
2023-04-15T20:14:47.290Z,20.07
2023-04-15T20:18:53.965Z,19.67
2023-04-15T20:22:59.454Z,18.77
2023-04-15T20:27:05.103Z,20.10
2023-04-15T20:31:10.704Z,18.17
2023-04-15T20:35:16.414Z,24.33
2023-04-15T20:39:21.992Z,18.60
2023-04-15T20:43:27.613Z,23.23
2023-04-15T20:47:33.104Z,19.93
2023-04-15T20:51:38.759Z,21.73
2023-04-15T20:55:44.702Z,21.37
2023-04-15T20:59:50.628Z,19.77
2023-04-15T21:03:58.569Z,22.27
2023-04-15T21:08:04.573Z,17.70
2023-04-15T21:12:11.185Z,22.50
2023-04-15T21:16:16.652Z,19.30
2023-04-15T21:20:22.394Z,23.43
2023-04-15T21:24:28.134Z,25.23
2023-04-15T21:28:33.666Z,19.80
2023-04-15T21:32:39.258Z,22.00
2023-04-15T21:36:44.751Z,22.20
2023-04-15T21:40:51.231Z,21.70
2023-04-15T21:44:56.730Z,16.37
2023-04-15T21:49:04.159Z,24.03
2023-04-15T21:53:10.020Z,24.07
2023-04-15T21:57:15.748Z,24.00
2023-04-15T22:01:21.392Z,19.13
2023-04-15T22:05:27.086Z,24.17
2023-04-15T22:09:33.181Z,18.77
2023-04-15T22:13:38.701Z,21.70
2023-04-15T22:17:46.824Z,25.70
2023-04-15T22:21:52.417Z,17.03
2023-04-15T22:25:59.948Z,20.00
2023-04-15T22:30:06.467Z,19.47
2023-04-15T22:34:14.618Z,17.67
2023-04-15T22:38:20.037Z,24.53
2023-04-15T22:42:26.158Z,18.27
2023-04-15T22:46:31.770Z,19.27
2023-04-15T22:50:38.062Z,19.37
2023-04-15T22:54:43.522Z,20.63
2023-04-15T22:58:50.674Z,18.00
2023-04-15T23:02:56.303Z,22.87
2023-04-15T23:07:01.987Z,23.10
2023-04-15T23:11:08.223Z,22.70
2023-04-15T23:15:13.901Z,25.33
2023-04-15T23:19:19.440Z,28.50
2023-04-15T23:23:25.467Z,24.53
2023-04-15T23:27:31.136Z,24.17
2023-04-15T23:31:36.932Z,18.80
2023-04-15T23:35:43.563Z,25.17
2023-04-15T23:39:49.212Z,16.50
2023-04-15T23:43:54.661Z,15.93
2023-04-15T23:48:00.535Z,22.57
2023-04-15T23:52:06.458Z,21.13
2023-04-15T23:56:12.040Z,15.97
